sensor_id;sensor_type;location;lat;lon;timestamp;P1;durP1;ratioP1;P2;durP2;ratioP2
77136;SDS011;66102;48.542;-2.970;2023-06-14T00:01:26;35.72;;;17.38;;
77136;SDS011;66102;48.542;-2.970;2023-06-14T00:03:53;36.10;;;17.65;;
77136;SDS011;66102;48.542;-2.970;2023-06-14T00:06:20;33.30;;;17.77;;
77136;SDS011;66102;48.542;-2.970;2023-06-14T00:08:49;35.88;;;18.02;;
77136;SDS011;66102;48.542;-2.970;2023-06-14T00:11:16;38.78;;;17.83;;
77136;SDS011;66102;48.542;-2.970;2023-06-14T00:13:42;33.72;;;17.98;;
77136;SDS011;66102;48.542;-2.970;2023-06-14T00:16:08;35.05;;;18.98;;
77136;SDS011;66102;48.542;-2.970;2023-06-14T00:18:34;37.03;;;18.83;;
77136;SDS011;66102;48.542;-2.970;2023-06-14T00:21:00;34.20;;;18.38;;
77136;SDS011;66102;48.542;-2.970;2023-06-14T00:23:28;34.45;;;18.73;;
77136;SDS011;66102;48.542;-2.970;2023-06-14T00:25:55;33.42;;;18.13;;
77136;SDS011;66102;48.542;-2.970;2023-06-14T00:28:21;35.17;;;18.25;;
77136;SDS011;66102;48.542;-2.970;2023-06-14T00:30:47;31.90;;;16.83;;
77136;SDS011;66102;48.542;-2.970;2023-06-14T00:33:13;35.45;;;17.77;;
77136;SDS011;66102;48.542;-2.970;2023-06-14T00:35:39;37.47;;;18.13;;
77136;SDS011;66102;48.542;-2.970;2023-06-14T00:38:05;34.33;;;17.33;;
77136;SDS011;66102;48.542;-2.970;2023-06-14T00:40:31;36.83;;;18.17;;
77136;SDS011;66102;48.542;-2.970;2023-06-14T00:42:57;36.80;;;19.60;;
77136;SDS011;66102;48.542;-2.970;2023-06-14T00:45:23;32.67;;;18.52;;
77136;SDS011;66102;48.542;-2.970;2023-06-14T00:47:49;36.53;;;19.83;;
77136;SDS011;66102;48.542;-2.970;2023-06-14T00:50:18;38.47;;;18.80;;
77136;SDS011;66102;48.542;-2.970;2023-06-14T00:52:44;33.13;;;17.92;;
77136;SDS011;66102;48.542;-2.970;2023-06-14T00:55:10;38.40;;;18.70;;
77136;SDS011;66102;48.542;-2.970;2023-06-14T00:57:37;34.28;;;19.20;;
77136;SDS011;66102;48.542;-2.970;2023-06-14T01:00:05;40.78;;;19.98;;
77136;SDS011;66102;48.542;-2.970;2023-06-14T01:02:34;36.05;;;18.50;;
77136;SDS011;66102;48.542;-2.970;2023-06-14T01:05:01;38.33;;;18.60;;
77136;SDS011;66102;48.542;-2.970;2023-06-14T01:12:44;34.53;;;18.13;;
77136;SDS011;66102;48.542;-2.970;2023-06-14T01:15:13;34.40;;;18.05;;
77136;SDS011;66102;48.542;-2.970;2023-06-14T01:17:40;37.33;;;19.48;;
77136;SDS011;66102;48.542;-2.970;2023-06-14T01:20:10;33.53;;;18.05;;
77136;SDS011;66102;48.542;-2.970;2023-06-14T01:22:43;39.42;;;19.35;;
77136;SDS011;66102;48.542;-2.970;2023-06-14T01:25:09;40.53;;;18.42;;
77136;SDS011;66102;48.542;-2.970;2023-06-14T01:27:37;36.70;;;19.35;;
77136;SDS011;66102;48.542;-2.970;2023-06-14T01:30:03;38.70;;;19.48;;
77136;SDS011;66102;48.542;-2.970;2023-06-14T01:32:30;38.65;;;20.20;;
77136;SDS011;66102;48.542;-2.970;2023-06-14T01:34:56;42.50;;;20.85;;
77136;SDS011;66102;48.542;-2.970;2023-06-14T01:37:22;37.13;;;19.60;;
77136;SDS011;66102;48.542;-2.970;2023-06-14T01:39:48;43.35;;;21.00;;
77136;SDS011;66102;48.542;-2.970;2023-06-14T01:42:16;36.28;;;18.50;;
77136;SDS011;66102;48.542;-2.970;2023-06-14T01:44:42;39.97;;;20.92;;
77136;SDS011;66102;48.542;-2.970;2023-06-14T01:47:09;33.58;;;17.67;;
77136;SDS011;66102;48.542;-2.970;2023-06-14T01:49:35;36.50;;;19.55;;
77136;SDS011;66102;48.542;-2.970;2023-06-14T01:52:01;40.35;;;19.10;;
77136;SDS011;66102;48.542;-2.970;2023-06-14T01:54:27;36.20;;;20.27;;
77136;SDS011;66102;48.542;-2.970;2023-06-14T01:56:54;38.30;;;20.52;;
77136;SDS011;66102;48.542;-2.970;2023-06-14T01:59:21;38.88;;;19.80;;
77136;SDS011;66102;48.542;-2.970;2023-06-14T02:01:47;44.90;;;22.38;;
77136;SDS011;66102;48.542;-2.970;2023-06-14T02:04:13;40.17;;;20.20;;
77136;SDS011;66102;48.542;-2.970;2023-06-14T02:06:39;36.45;;;19.90;;
77136;SDS011;66102;48.542;-2.970;2023-06-14T02:09:05;41.95;;;20.10;;
77136;SDS011;66102;48.542;-2.970;2023-06-14T02:11:31;38.85;;;19.80;;
77136;SDS011;66102;48.542;-2.970;2023-06-14T02:13:57;45.80;;;22.35;;
77136;SDS011;66102;48.542;-2.970;2023-06-14T02:16:24;36.97;;;19.67;;
77136;SDS011;66102;48.542;-2.970;2023-06-14T02:18:53;39.03;;;19.58;;
77136;SDS011;66102;48.542;-2.970;2023-06-14T02:21:19;38.85;;;20.13;;
77136;SDS011;66102;48.542;-2.970;2023-06-14T02:23:45;37.72;;;21.73;;
77136;SDS011;66102;48.542;-2.970;2023-06-14T02:26:11;33.47;;;19.27;;
77136;SDS011;66102;48.542;-2.970;2023-06-14T02:28:37;41.17;;;20.52;;
77136;SDS011;66102;48.542;-2.970;2023-06-14T02:31:03;39.05;;;20.27;;
77136;SDS011;66102;48.542;-2.970;2023-06-14T02:33:29;42.70;;;20.30;;
77136;SDS011;66102;48.542;-2.970;2023-06-14T02:35:55;37.95;;;20.25;;
77136;SDS011;66102;48.542;-2.970;2023-06-14T02:38:22;41.25;;;21.00;;
77136;SDS011;66102;48.542;-2.970;2023-06-14T02:40:48;38.72;;;19.83;;
77136;SDS011;66102;48.542;-2.970;2023-06-14T02:43:14;39.45;;;20.55;;
77136;SDS011;66102;48.542;-2.970;2023-06-14T02:45:42;38.30;;;19.63;;
77136;SDS011;66102;48.542;-2.970;2023-06-14T02:48:08;40.60;;;20.73;;
77136;SDS011;66102;48.542;-2.970;2023-06-14T02:50:34;41.40;;;21.50;;
77136;SDS011;66102;48.542;-2.970;2023-06-14T02:53:00;41.38;;;21.77;;
77136;SDS011;66102;48.542;-2.970;2023-06-14T02:55:27;38.47;;;20.10;;
77136;SDS011;66102;48.542;-2.970;2023-06-14T02:57:53;36.13;;;18.60;;
77136;SDS011;66102;48.542;-2.970;2023-06-14T03:00:20;35.20;;;18.55;;
77136;SDS011;66102;48.542;-2.970;2023-06-14T03:02:46;33.17;;;18.08;;
77136;SDS011;66102;48.542;-2.970;2023-06-14T03:05:12;37.33;;;18.83;;
77136;SDS011;66102;48.542;-2.970;2023-06-14T03:07:39;36.95;;;19.65;;
77136;SDS011;66102;48.542;-2.970;2023-06-14T03:10:07;37.15;;;20.40;;
77136;SDS011;66102;48.542;-2.970;2023-06-14T03:12:34;36.97;;;20.10;;
77136;SDS011;66102;48.542;-2.970;2023-06-14T03:15:00;31.40;;;17.73;;
77136;SDS011;66102;48.542;-2.970;2023-06-14T03:17:27;33.15;;;19.08;;
77136;SDS011;66102;48.542;-2.970;2023-06-14T03:19:55;30.33;;;18.02;;
77136;SDS011;66102;48.542;-2.970;2023-06-14T03:22:21;31.42;;;17.77;;
77136;SDS011;66102;48.542;-2.970;2023-06-14T03:24:47;32.63;;;19.08;;
77136;SDS011;66102;48.542;-2.970;2023-06-14T03:27:13;34.47;;;18.05;;
77136;SDS011;66102;48.542;-2.970;2023-06-14T03:29:39;34.92;;;18.83;;
77136;SDS011;66102;48.542;-2.970;2023-06-14T03:32:05;33.80;;;17.83;;
77136;SDS011;66102;48.542;-2.970;2023-06-14T03:34:31;38.20;;;21.48;;
77136;SDS011;66102;48.542;-2.970;2023-06-14T03:36:57;33.95;;;19.50;;
77136;SDS011;66102;48.542;-2.970;2023-06-14T03:39:23;35.35;;;19.52;;
77136;SDS011;66102;48.542;-2.970;2023-06-14T03:41:49;37.25;;;20.15;;
77136;SDS011;66102;48.542;-2.970;2023-06-14T03:44:16;33.58;;;19.45;;
77136;SDS011;66102;48.542;-2.970;2023-06-14T03:46:43;35.65;;;19.70;;
77136;SDS011;66102;48.542;-2.970;2023-06-14T03:49:10;34.10;;;19.35;;
77136;SDS011;66102;48.542;-2.970;2023-06-14T03:51:36;33.28;;;18.00;;
77136;SDS011;66102;48.542;-2.970;2023-06-14T03:54:02;33.25;;;19.75;;
77136;SDS011;66102;48.542;-2.970;2023-06-14T03:56:28;32.45;;;18.35;;
77136;SDS011;66102;48.542;-2.970;2023-06-14T03:58:54;33.33;;;19.27;;
77136;SDS011;66102;48.542;-2.970;2023-06-14T04:01:21;35.13;;;19.98;;
77136;SDS011;66102;48.542;-2.970;2023-06-14T04:03:52;37.65;;;18.83;;
77136;SDS011;66102;48.542;-2.970;2023-06-14T04:06:18;34.70;;;18.63;;
77136;SDS011;66102;48.542;-2.970;2023-06-14T04:08:44;34.55;;;19.40;;
77136;SDS011;66102;48.542;-2.970;2023-06-14T04:11:11;36.67;;;20.02;;
77136;SDS011;66102;48.542;-2.970;2023-06-14T04:13:37;34.45;;;18.77;;
77136;SDS011;66102;48.542;-2.970;2023-06-14T04:16:04;34.95;;;19.75;;
77136;SDS011;66102;48.542;-2.970;2023-06-14T04:18:30;35.95;;;19.15;;
77136;SDS011;66102;48.542;-2.970;2023-06-14T04:20:56;33.58;;;18.85;;
77136;SDS011;66102;48.542;-2.970;2023-06-14T04:23:22;34.15;;;19.25;;
77136;SDS011;66102;48.542;-2.970;2023-06-14T04:25:48;37.38;;;18.60;;
77136;SDS011;66102;48.542;-2.970;2023-06-14T04:28:14;32.20;;;18.05;;
77136;SDS011;66102;48.542;-2.970;2023-06-14T04:30:42;34.72;;;20.17;;
77136;SDS011;66102;48.542;-2.970;2023-06-14T04:33:08;39.88;;;19.65;;
77136;SDS011;66102;48.542;-2.970;2023-06-14T04:35:35;36.50;;;20.10;;
77136;SDS011;66102;48.542;-2.970;2023-06-14T04:38:02;37.30;;;20.67;;
77136;SDS011;66102;48.542;-2.970;2023-06-14T04:40:33;36.05;;;19.27;;
77136;SDS011;66102;48.542;-2.970;2023-06-14T04:42:59;33.40;;;18.45;;
77136;SDS011;66102;48.542;-2.970;2023-06-14T04:45:26;33.70;;;18.33;;
77136;SDS011;66102;48.542;-2.970;2023-06-14T04:47:56;35.63;;;19.42;;
77136;SDS011;66102;48.542;-2.970;2023-06-14T04:50:24;34.67;;;20.27;;
77136;SDS011;66102;48.542;-2.970;2023-06-14T04:52:50;35.15;;;19.05;;
77136;SDS011;66102;48.542;-2.970;2023-06-14T04:55:16;31.35;;;17.92;;
77136;SDS011;66102;48.542;-2.970;2023-06-14T04:57:45;36.55;;;19.85;;
77136;SDS011;66102;48.542;-2.970;2023-06-14T05:00:11;36.58;;;19.70;;
77136;SDS011;66102;48.542;-2.970;2023-06-14T05:02:37;34.47;;;17.48;;
77136;SDS011;66102;48.542;-2.970;2023-06-14T05:05:03;35.85;;;19.33;;
77136;SDS011;66102;48.542;-2.970;2023-06-14T05:07:32;37.10;;;20.15;;
77136;SDS011;66102;48.542;-2.970;2023-06-14T05:09:58;31.98;;;17.52;;
77136;SDS011;66102;48.542;-2.970;2023-06-14T05:12:25;39.47;;;19.75;;
77136;SDS011;66102;48.542;-2.970;2023-06-14T05:14:51;38.10;;;19.02;;
77136;SDS011;66102;48.542;-2.970;2023-06-14T05:17:17;34.30;;;18.55;;
77136;SDS011;66102;48.542;-2.970;2023-06-14T05:19:43;34.92;;;19.40;;
77136;SDS011;66102;48.542;-2.970;2023-06-14T05:22:09;33.67;;;18.23;;
77136;SDS011;66102;48.542;-2.970;2023-06-14T05:24:35;38.50;;;20.45;;
77136;SDS011;66102;48.542;-2.970;2023-06-14T05:27:01;37.80;;;20.17;;
77136;SDS011;66102;48.542;-2.970;2023-06-14T05:29:28;34.50;;;17.55;;
77136;SDS011;66102;48.542;-2.970;2023-06-14T05:31:54;37.47;;;20.23;;
77136;SDS011;66102;48.542;-2.970;2023-06-14T05:34:20;34.13;;;18.52;;
77136;SDS011;66102;48.542;-2.970;2023-06-14T05:36:46;46.67;;;21.77;;
77136;SDS011;66102;48.542;-2.970;2023-06-14T05:39:12;35.10;;;18.77;;
77136;SDS011;66102;48.542;-2.970;2023-06-14T05:41:38;37.10;;;21.35;;
77136;SDS011;66102;48.542;-2.970;2023-06-14T05:44:04;36.33;;;19.60;;
77136;SDS011;66102;48.542;-2.970;2023-06-14T05:46:31;38.15;;;18.77;;
77136;SDS011;66102;48.542;-2.970;2023-06-14T05:48:57;33.92;;;18.88;;
77136;SDS011;66102;48.542;-2.970;2023-06-14T05:51:23;33.63;;;17.60;;
77136;SDS011;66102;48.542;-2.970;2023-06-14T05:53:50;36.45;;;19.52;;
77136;SDS011;66102;48.542;-2.970;2023-06-14T05:56:17;33.55;;;17.77;;
77136;SDS011;66102;48.542;-2.970;2023-06-14T05:58:43;32.47;;;18.17;;
77136;SDS011;66102;48.542;-2.970;2023-06-14T06:01:09;32.60;;;17.77;;
77136;SDS011;66102;48.542;-2.970;2023-06-14T06:03:36;34.63;;;18.42;;
77136;SDS011;66102;48.542;-2.970;2023-06-14T06:06:02;29.88;;;16.92;;
77136;SDS011;66102;48.542;-2.970;2023-06-14T06:08:28;32.72;;;18.05;;
77136;SDS011;66102;48.542;-2.970;2023-06-14T06:10:55;32.03;;;17.02;;
77136;SDS011;66102;48.542;-2.970;2023-06-14T06:13:21;31.10;;;17.73;;
77136;SDS011;66102;48.542;-2.970;2023-06-14T06:15:47;30.92;;;16.17;;
77136;SDS011;66102;48.542;-2.970;2023-06-14T06:18:14;29.92;;;16.35;;
77136;SDS011;66102;48.542;-2.970;2023-06-14T06:20:40;29.20;;;16.30;;
77136;SDS011;66102;48.542;-2.970;2023-06-14T06:23:06;28.85;;;15.90;;
77136;SDS011;66102;48.542;-2.970;2023-06-14T06:25:34;27.17;;;16.17;;
77136;SDS011;66102;48.542;-2.970;2023-06-14T06:28:00;27.20;;;16.23;;
77136;SDS011;66102;48.542;-2.970;2023-06-14T06:30:26;25.50;;;15.85;;
77136;SDS011;66102;48.542;-2.970;2023-06-14T06:32:53;26.60;;;15.43;;
77136;SDS011;66102;48.542;-2.970;2023-06-14T06:35:20;27.83;;;15.68;;
77136;SDS011;66102;48.542;-2.970;2023-06-14T06:37:46;31.20;;;16.00;;
77136;SDS011;66102;48.542;-2.970;2023-06-14T06:40:13;24.38;;;14.55;;
77136;SDS011;66102;48.542;-2.970;2023-06-14T06:42:39;27.23;;;15.60;;
77136;SDS011;66102;48.542;-2.970;2023-06-14T06:45:05;26.10;;;14.88;;
77136;SDS011;66102;48.542;-2.970;2023-06-14T06:47:31;27.00;;;15.65;;
77136;SDS011;66102;48.542;-2.970;2023-06-14T06:49:57;25.50;;;15.80;;
77136;SDS011;66102;48.542;-2.970;2023-06-14T06:52:23;26.02;;;14.95;;
77136;SDS011;66102;48.542;-2.970;2023-06-14T06:54:49;24.63;;;14.80;;
77136;SDS011;66102;48.542;-2.970;2023-06-14T06:57:19;24.23;;;14.18;;
77136;SDS011;66102;48.542;-2.970;2023-06-14T06:59:47;24.70;;;14.15;;
77136;SDS011;66102;48.542;-2.970;2023-06-14T07:02:13;24.92;;;14.77;;
77136;SDS011;66102;48.542;-2.970;2023-06-14T07:04:40;22.67;;;13.80;;
77136;SDS011;66102;48.542;-2.970;2023-06-14T07:07:06;24.73;;;14.13;;
77136;SDS011;66102;48.542;-2.970;2023-06-14T07:09:35;22.15;;;13.50;;
77136;SDS011;66102;48.542;-2.970;2023-06-14T07:12:01;22.90;;;13.18;;
77136;SDS011;66102;48.542;-2.970;2023-06-14T07:14:27;22.42;;;13.57;;
77136;SDS011;66102;48.542;-2.970;2023-06-14T07:16:55;20.63;;;13.38;;
77136;SDS011;66102;48.542;-2.970;2023-06-14T07:19:21;22.27;;;13.00;;
77136;SDS011;66102;48.542;-2.970;2023-06-14T07:21:47;22.35;;;13.18;;
77136;SDS011;66102;48.542;-2.970;2023-06-14T07:24:13;20.13;;;12.75;;
77136;SDS011;66102;48.542;-2.970;2023-06-14T07:26:46;22.27;;;13.07;;
77136;SDS011;66102;48.542;-2.970;2023-06-14T07:29:17;21.73;;;12.70;;
77136;SDS011;66102;48.542;-2.970;2023-06-14T07:31:44;21.33;;;12.93;;
77136;SDS011;66102;48.542;-2.970;2023-06-14T07:34:10;18.77;;;11.68;;
77136;SDS011;66102;48.542;-2.970;2023-06-14T07:36:36;20.13;;;12.32;;
77136;SDS011;66102;48.542;-2.970;2023-06-14T07:39:03;18.25;;;11.32;;
77136;SDS011;66102;48.542;-2.970;2023-06-14T07:41:30;18.35;;;11.48;;
77136;SDS011;66102;48.542;-2.970;2023-06-14T07:43:57;19.70;;;11.77;;
77136;SDS011;66102;48.542;-2.970;2023-06-14T07:46:23;20.20;;;12.60;;
77136;SDS011;66102;48.542;-2.970;2023-06-14T07:48:49;19.50;;;12.15;;
77136;SDS011;66102;48.542;-2.970;2023-06-14T07:51:15;19.48;;;11.75;;
77136;SDS011;66102;48.542;-2.970;2023-06-14T07:53:41;19.58;;;11.63;;
77136;SDS011;66102;48.542;-2.970;2023-06-14T07:56:07;20.33;;;12.32;;
77136;SDS011;66102;48.542;-2.970;2023-06-14T07:58:33;17.40;;;10.07;;
77136;SDS011;66102;48.542;-2.970;2023-06-14T08:00:59;17.33;;;10.27;;
77136;SDS011;66102;48.542;-2.970;2023-06-14T08:03:28;18.00;;;11.02;;
77136;SDS011;66102;48.542;-2.970;2023-06-14T08:05:55;19.02;;;11.65;;
77136;SDS011;66102;48.542;-2.970;2023-06-14T08:08:21;16.50;;;10.85;;
77136;SDS011;66102;48.542;-2.970;2023-06-14T08:10:47;19.15;;;11.82;;
77136;SDS011;66102;48.542;-2.970;2023-06-14T08:13:14;17.90;;;11.23;;
77136;SDS011;66102;48.542;-2.970;2023-06-14T08:15:40;15.43;;;9.85;;
77136;SDS011;66102;48.542;-2.970;2023-06-14T08:18:07;17.25;;;10.98;;
77136;SDS011;66102;48.542;-2.970;2023-06-14T08:20:33;16.27;;;10.35;;
77136;SDS011;66102;48.542;-2.970;2023-06-14T08:23:00;18.75;;;11.27;;
77136;SDS011;66102;48.542;-2.970;2023-06-14T08:25:26;16.33;;;10.57;;
77136;SDS011;66102;48.542;-2.970;2023-06-14T08:27:52;21.02;;;11.00;;
77136;SDS011;66102;48.542;-2.970;2023-06-14T08:30:18;16.15;;;10.93;;
77136;SDS011;66102;48.542;-2.970;2023-06-14T08:32:44;18.58;;;10.48;;
77136;SDS011;66102;48.542;-2.970;2023-06-14T08:35:10;18.80;;;11.23;;
77136;SDS011;66102;48.542;-2.970;2023-06-14T08:37:40;16.15;;;10.13;;
77136;SDS011;66102;48.542;-2.970;2023-06-14T08:40:12;17.13;;;10.48;;
77136;SDS011;66102;48.542;-2.970;2023-06-14T08:42:38;18.50;;;11.32;;
77136;SDS011;66102;48.542;-2.970;2023-06-14T08:45:04;18.73;;;11.07;;
77136;SDS011;66102;48.542;-2.970;2023-06-14T08:47:31;15.55;;;9.27;;
77136;SDS011;66102;48.542;-2.970;2023-06-14T08:50:01;17.23;;;9.25;;
77136;SDS011;66102;48.542;-2.970;2023-06-14T08:52:29;18.05;;;11.00;;
77136;SDS011;66102;48.542;-2.970;2023-06-14T08:54:58;17.92;;;10.38;;
77136;SDS011;66102;48.542;-2.970;2023-06-14T08:57:25;15.40;;;9.93;;
77136;SDS011;66102;48.542;-2.970;2023-06-14T08:59:55;19.48;;;11.30;;
77136;SDS011;66102;48.542;-2.970;2023-06-14T09:02:22;15.30;;;9.82;;
77136;SDS011;66102;48.542;-2.970;2023-06-14T09:04:50;16.63;;;10.23;;
77136;SDS011;66102;48.542;-2.970;2023-06-14T09:07:16;17.98;;;10.35;;
77136;SDS011;66102;48.542;-2.970;2023-06-14T09:09:43;14.60;;;9.43;;
77136;SDS011;66102;48.542;-2.970;2023-06-14T09:12:10;14.88;;;9.20;;
77136;SDS011;66102;48.542;-2.970;2023-06-14T09:14:37;13.15;;;8.52;;
77136;SDS011;66102;48.542;-2.970;2023-06-14T09:17:06;14.23;;;8.68;;
77136;SDS011;66102;48.542;-2.970;2023-06-14T09:19:32;14.68;;;9.10;;
77136;SDS011;66102;48.542;-2.970;2023-06-14T09:22:00;17.52;;;9.13;;
77136;SDS011;66102;48.542;-2.970;2023-06-14T09:24:26;14.55;;;8.98;;
77136;SDS011;66102;48.542;-2.970;2023-06-14T09:26:52;17.92;;;8.15;;
77136;SDS011;66102;48.542;-2.970;2023-06-14T09:29:18;16.35;;;9.15;;
77136;SDS011;66102;48.542;-2.970;2023-06-14T09:31:48;14.85;;;8.40;;
77136;SDS011;66102;48.542;-2.970;2023-06-14T09:34:14;15.05;;;8.40;;
77136;SDS011;66102;48.542;-2.970;2023-06-14T09:36:44;16.05;;;7.80;;
77136;SDS011;66102;48.542;-2.970;2023-06-14T09:39:10;13.75;;;7.30;;
77136;SDS011;66102;48.542;-2.970;2023-06-14T09:41:40;13.18;;;7.22;;
77136;SDS011;66102;48.542;-2.970;2023-06-14T09:44:08;13.23;;;6.45;;
77136;SDS011;66102;48.542;-2.970;2023-06-14T09:46:34;12.25;;;6.88;;
77136;SDS011;66102;48.542;-2.970;2023-06-14T09:49:01;11.90;;;7.03;;
77136;SDS011;66102;48.542;-2.970;2023-06-14T09:51:28;15.43;;;7.40;;
77136;SDS011;66102;48.542;-2.970;2023-06-14T09:53:57;11.95;;;6.68;;
77136;SDS011;66102;48.542;-2.970;2023-06-14T09:56:28;14.05;;;7.30;;
77136;SDS011;66102;48.542;-2.970;2023-06-14T09:58:56;11.57;;;6.40;;
77136;SDS011;66102;48.542;-2.970;2023-06-14T10:01:27;13.35;;;6.70;;
77136;SDS011;66102;48.542;-2.970;2023-06-14T10:03:58;16.20;;;7.82;;
77136;SDS011;66102;48.542;-2.970;2023-06-14T10:06:26;13.73;;;7.53;;
77136;SDS011;66102;48.542;-2.970;2023-06-14T10:08:56;15.35;;;7.53;;
77136;SDS011;66102;48.542;-2.970;2023-06-14T10:11:22;12.02;;;6.75;;
77136;SDS011;66102;48.542;-2.970;2023-06-14T10:13:49;12.07;;;6.07;;
77136;SDS011;66102;48.542;-2.970;2023-06-14T10:16:17;10.10;;;5.85;;
77136;SDS011;66102;48.542;-2.970;2023-06-14T10:18:53;10.68;;;5.40;;
77136;SDS011;66102;48.542;-2.970;2023-06-14T10:21:28;11.35;;;6.50;;
77136;SDS011;66102;48.542;-2.970;2023-06-14T10:23:59;11.13;;;5.68;;
77136;SDS011;66102;48.542;-2.970;2023-06-14T10:26:27;14.30;;;6.05;;
77136;SDS011;66102;48.542;-2.970;2023-06-14T10:28:59;11.65;;;5.35;;
77136;SDS011;66102;48.542;-2.970;2023-06-14T10:34:07;12.30;;;6.28;;
77136;SDS011;66102;48.542;-2.970;2023-06-14T10:36:33;9.57;;;5.93;;
77136;SDS011;66102;48.542;-2.970;2023-06-14T10:41:39;11.80;;;5.80;;
77136;SDS011;66102;48.542;-2.970;2023-06-14T10:46:38;11.05;;;5.32;;
77136;SDS011;66102;48.542;-2.970;2023-06-14T10:49:05;11.32;;;5.25;;
77136;SDS011;66102;48.542;-2.970;2023-06-14T10:51:38;9.93;;;5.15;;
77136;SDS011;66102;48.542;-2.970;2023-06-14T10:54:14;9.13;;;4.78;;
77136;SDS011;66102;48.542;-2.970;2023-06-14T10:56:47;13.40;;;5.55;;
77136;SDS011;66102;48.542;-2.970;2023-06-14T10:59:14;9.75;;;4.68;;
77136;SDS011;66102;48.542;-2.970;2023-06-14T11:02:00;11.80;;;5.10;;
77136;SDS011;66102;48.542;-2.970;2023-06-14T11:04:48;8.85;;;5.05;;
77136;SDS011;66102;48.542;-2.970;2023-06-14T11:10:09;9.00;;;4.65;;
77136;SDS011;66102;48.542;-2.970;2023-06-14T11:12:36;9.13;;;4.88;;
77136;SDS011;66102;48.542;-2.970;2023-06-14T11:15:02;13.52;;;5.38;;
77136;SDS011;66102;48.542;-2.970;2023-06-14T11:17:29;9.02;;;4.78;;
77136;SDS011;66102;48.542;-2.970;2023-06-14T11:20:11;12.23;;;4.90;;
77136;SDS011;66102;48.542;-2.970;2023-06-14T11:22:43;9.88;;;4.43;;
77136;SDS011;66102;48.542;-2.970;2023-06-14T11:25:10;9.65;;;4.60;;
77136;SDS011;66102;48.542;-2.970;2023-06-14T11:27:36;11.25;;;4.90;;
77136;SDS011;66102;48.542;-2.970;2023-06-14T11:30:02;9.90;;;4.68;;
77136;SDS011;66102;48.542;-2.970;2023-06-14T11:32:30;11.40;;;5.45;;
77136;SDS011;66102;48.542;-2.970;2023-06-14T11:34:57;10.95;;;4.95;;
77136;SDS011;66102;48.542;-2.970;2023-06-14T11:37:25;11.10;;;4.72;;
77136;SDS011;66102;48.542;-2.970;2023-06-14T11:39:51;8.18;;;4.53;;
77136;SDS011;66102;48.542;-2.970;2023-06-14T11:42:17;9.25;;;4.25;;
77136;SDS011;66102;48.542;-2.970;2023-06-14T11:44:47;29.70;;;5.47;;
77136;SDS011;66102;48.542;-2.970;2023-06-14T11:47:13;8.98;;;4.60;;
77136;SDS011;66102;48.542;-2.970;2023-06-14T11:49:39;34.65;;;5.82;;
77136;SDS011;66102;48.542;-2.970;2023-06-14T11:52:05;12.13;;;5.13;;
77136;SDS011;66102;48.542;-2.970;2023-06-14T11:54:34;10.15;;;4.93;;
77136;SDS011;66102;48.542;-2.970;2023-06-14T11:57:00;12.25;;;4.97;;
77136;SDS011;66102;48.542;-2.970;2023-06-14T11:59:27;9.68;;;5.35;;
77136;SDS011;66102;48.542;-2.970;2023-06-14T12:01:53;8.45;;;4.85;;
77136;SDS011;66102;48.542;-2.970;2023-06-14T12:04:23;21.35;;;5.93;;
77136;SDS011;66102;48.542;-2.970;2023-06-14T12:06:50;12.68;;;5.38;;
77136;SDS011;66102;48.542;-2.970;2023-06-14T12:09:18;12.35;;;4.95;;
77136;SDS011;66102;48.542;-2.970;2023-06-14T12:11:44;11.63;;;5.07;;
77136;SDS011;66102;48.542;-2.970;2023-06-14T12:14:11;9.40;;;4.97;;
77136;SDS011;66102;48.542;-2.970;2023-06-14T12:16:37;9.75;;;4.68;;
77136;SDS011;66102;48.542;-2.970;2023-06-14T12:19:14;8.13;;;4.88;;
77136;SDS011;66102;48.542;-2.970;2023-06-14T12:21:41;14.63;;;5.50;;
77136;SDS011;66102;48.542;-2.970;2023-06-14T12:24:07;8.38;;;4.70;;
77136;SDS011;66102;48.542;-2.970;2023-06-14T12:26:33;11.55;;;5.70;;
77136;SDS011;66102;48.542;-2.970;2023-06-14T12:29:04;11.15;;;5.55;;
77136;SDS011;66102;48.542;-2.970;2023-06-14T12:31:31;8.77;;;4.80;;
77136;SDS011;66102;48.542;-2.970;2023-06-14T12:33:57;9.32;;;5.35;;
77136;SDS011;66102;48.542;-2.970;2023-06-14T12:36:24;9.80;;;5.47;;
77136;SDS011;66102;48.542;-2.970;2023-06-14T12:38:50;11.88;;;5.05;;
77136;SDS011;66102;48.542;-2.970;2023-06-14T12:41:19;11.38;;;5.22;;
77136;SDS011;66102;48.542;-2.970;2023-06-14T12:43:47;10.85;;;5.15;;
77136;SDS011;66102;48.542;-2.970;2023-06-14T12:46:13;9.85;;;5.53;;
77136;SDS011;66102;48.542;-2.970;2023-06-14T12:48:39;11.57;;;4.80;;
77136;SDS011;66102;48.542;-2.970;2023-06-14T12:51:06;10.25;;;5.03;;
77136;SDS011;66102;48.542;-2.970;2023-06-14T12:53:32;10.30;;;5.65;;
77136;SDS011;66102;48.542;-2.970;2023-06-14T12:55:58;11.48;;;6.10;;
77136;SDS011;66102;48.542;-2.970;2023-06-14T12:58:24;11.35;;;5.03;;
77136;SDS011;66102;48.542;-2.970;2023-06-14T13:00:51;10.50;;;5.00;;
77136;SDS011;66102;48.542;-2.970;2023-06-14T13:03:17;14.52;;;5.75;;
77136;SDS011;66102;48.542;-2.970;2023-06-14T13:05:44;12.07;;;5.15;;
77136;SDS011;66102;48.542;-2.970;2023-06-14T13:08:10;11.80;;;5.55;;
77136;SDS011;66102;48.542;-2.970;2023-06-14T13:10:36;12.52;;;4.88;;
77136;SDS011;66102;48.542;-2.970;2023-06-14T13:13:02;11.10;;;5.25;;
77136;SDS011;66102;48.542;-2.970;2023-06-14T13:15:28;13.13;;;5.10;;
77136;SDS011;66102;48.542;-2.970;2023-06-14T13:17:55;11.80;;;5.30;;
77136;SDS011;66102;48.542;-2.970;2023-06-14T13:20:21;11.05;;;5.88;;
77136;SDS011;66102;48.542;-2.970;2023-06-14T13:22:47;12.30;;;4.95;;
77136;SDS011;66102;48.542;-2.970;2023-06-14T13:25:13;11.73;;;4.65;;
77136;SDS011;66102;48.542;-2.970;2023-06-14T13:27:39;10.10;;;4.45;;
77136;SDS011;66102;48.542;-2.970;2023-06-14T13:30:05;8.40;;;4.75;;
77136;SDS011;66102;48.542;-2.970;2023-06-14T13:32:32;10.80;;;5.20;;
77136;SDS011;66102;48.542;-2.970;2023-06-14T13:34:58;7.97;;;4.60;;
77136;SDS011;66102;48.542;-2.970;2023-06-14T13:37:24;8.15;;;4.50;;
77136;SDS011;66102;48.542;-2.970;2023-06-14T13:39:51;10.77;;;4.85;;
77136;SDS011;66102;48.542;-2.970;2023-06-14T13:42:17;9.93;;;4.57;;
77136;SDS011;66102;48.542;-2.970;2023-06-14T13:44:43;12.00;;;4.68;;
77136;SDS011;66102;48.542;-2.970;2023-06-14T13:47:09;9.60;;;4.30;;
77136;SDS011;66102;48.542;-2.970;2023-06-14T13:49:35;13.55;;;5.38;;
77136;SDS011;66102;48.542;-2.970;2023-06-14T13:52:01;9.27;;;5.25;;
77136;SDS011;66102;48.542;-2.970;2023-06-14T13:54:27;11.00;;;4.30;;
77136;SDS011;66102;48.542;-2.970;2023-06-14T13:56:54;11.32;;;5.03;;
77136;SDS011;66102;48.542;-2.970;2023-06-14T13:59:20;10.50;;;5.40;;
77136;SDS011;66102;48.542;-2.970;2023-06-14T14:01:47;9.80;;;5.10;;
77136;SDS011;66102;48.542;-2.970;2023-06-14T14:04:13;11.02;;;4.80;;
77136;SDS011;66102;48.542;-2.970;2023-06-14T14:06:39;10.13;;;4.60;;
77136;SDS011;66102;48.542;-2.970;2023-06-14T14:09:05;10.80;;;4.55;;
77136;SDS011;66102;48.542;-2.970;2023-06-14T14:11:32;9.15;;;4.63;;
77136;SDS011;66102;48.542;-2.970;2023-06-14T14:13:58;11.50;;;5.30;;
77136;SDS011;66102;48.542;-2.970;2023-06-14T14:16:25;9.93;;;4.88;;
77136;SDS011;66102;48.542;-2.970;2023-06-14T14:18:51;8.43;;;4.75;;
77136;SDS011;66102;48.542;-2.970;2023-06-14T14:21:17;9.52;;;5.20;;
77136;SDS011;66102;48.542;-2.970;2023-06-14T14:23:43;9.65;;;4.82;;
77136;SDS011;66102;48.542;-2.970;2023-06-14T14:26:10;12.70;;;5.88;;
77136;SDS011;66102;48.542;-2.970;2023-06-14T14:28:36;10.05;;;5.07;;
77136;SDS011;66102;48.542;-2.970;2023-06-14T14:31:02;11.20;;;4.35;;